Flugplatz Ober-Mörlen

Für EDFP sind keine METAR/TAF Berichte vorhanden.
Es werden die Flugwettermeldungen vom Flugplatz Frankfurt am Main International in 37 km Entfernung angezeigt.

Bericht für EDDF

vom 23.08. um 12:50 UTC

Wind 9 kt aus 70°

Sichtweite 10 km oder mehr

gute Sicht, keine Wolken < 5000 ft, keine CB, keine Wettererscheinungen (CAVOK)

Temperatur 28.0°C

Taupunkt 9.0°C

Luftfeuchtigkeit 30%

Luftdruck 1024 hPa

keine wesentliche Wetteränderung innerhalb den nächsten 2 Stunden zu erwarten

EDDF 231250Z 07009KT 030V130 CAVOK 28/09 Q1024 NOSIG

Prognose für EDDF

vom 23.08. um 00:00 UTC

Zwischen 00:00 UTC und 00:00 UTC

Wind 6 kt aus 60°

Sichtweite 10 km oder mehr

keine signifikanten Wettererscheinungen

keine Wolken

TAF EDDF 231100Z 2312/2418 06006KT CAVOK
Impressum